OIIE/IKA METAR and TAF weather

Enter ICAO airport designator
Station Type Date Time Source
OIIE METAR 2021/03/08 12:00 UTC NOAA

OIIE 081200Z 09008KT 9999 FEW100 SCT200 18/M06 Q1012


Station Type Date Time Source
OIIE Decoded METAR 2021/03/08 12:00 UTC NOAA

Station name not available
Mar 08, 2021 - 07:00 AM EST / 2021.03.08 1200 UTC
Wind: from the E (090 degrees) at 9 MPH (8 KT):0
Visibility: greater than 7 mile(s):0
Sky conditions: partly cloudy
Temperature: 64 F (18 C)
Dew Point: 21 F (-6 C)
Relative Humidity: 18%
Pressure (altimeter): 29.88 in. Hg (1012 hPa)
ob: OIIE 081200Z 09008KT 9999 FEW100 SCT200 18/M06 Q1012
cycle: 12

Station Type Date Time Source
OIIE TAF 2021/03/08 12:00 UTC NOAA

TAF OIIE 081110Z 0812/0918 14008KT 8000 FEW040 SCT100
TEMPO 0815/0824 FEW035CB SCT040 BKN100
TEMPO 0907/0914 28018KT

Example: see airport list